Time;durP1;ratioP1;P1;durP2;ratioP2;P2;SDS_P1;SDS_P2;PMS_P1;PMS_P2;Temp;Humidity;BMP_temperature;BMP_pressure;BME280_temperature;BME280_humidity;BME280_pressure;Samples;Min_cycle;Max_cycle;Signal;HPM_P1;HPM_P2
2022/08/11 00:00:36;;;;;;;5.38;4.88;;;;;;;21.61;59.69;94797.53;4176571;28;20186;-69
2022/08/11 00:02:41;;;;;;;5.75;4.97;;;;;;;21.57;59.90;94799.03;4172288;28;20101;-69
2022/08/11 00:04:43;;;;;;;5.78;5.18;;;;;;;21.58;59.85;94803.34;4161943;28;20052;-69
2022/08/11 00:06:45;;;;;;;5.60;4.80;;;;;;;21.57;59.92;94799.84;4184813;28;20143;-69
2022/08/11 00:08:49;;;;;;;6.88;4.97;;;;;;;21.56;59.91;94800.09;4161070;28;20092;-68
2022/08/11 00:11:04;;;;;;;6.85;4.43;;;;;;;21.51;60.29;94799.94;4133719;28;20061;-69
2022/08/11 00:13:06;;;;;;;6.38;5.00;;;;;;;21.56;60.07;94802.75;4166472;28;20568;-69
2022/08/11 00:15:09;;;;;;;8.45;4.95;;;;;;;21.54;60.12;94800.31;4168873;28;20103;-69
2022/08/11 00:17:13;;;;;;;5.75;5.18;;;;;;;21.50;60.05;94801.78;4148857;28;20493;-69
2022/08/11 00:19:21;;;;;;;5.70;5.00;;;;;;;21.44;60.33;94810.69;4174136;28;20045;-69
2022/08/11 00:21:43;;;;;;;5.40;4.65;;;;;;;21.40;60.60;94804.13;4147485;28;20069;-68
2022/08/11 00:24:05;;;;;;;5.93;5.18;;;;;;;21.37;60.88;94801.94;4163640;28;20443;-69
2022/08/11 00:26:07;;;;;;;7.57;5.32;;;;;;;21.28;60.83;94799.56;4150721;28;20041;-68
2022/08/11 00:28:27;;;;;;;5.22;4.70;;;;;;;21.24;61.07;94794.91;4145044;28;20062;-68
2022/08/11 00:30:38;;;;;;;7.45;4.65;;;;;;;21.30;61.10;94801.19;4162850;28;20160;-68
2022/08/11 00:32:42;;;;;;;6.63;5.18;;;;;;;21.31;60.80;94795.63;4170309;28;20476;-69
2022/08/11 00:34:45;;;;;;;5.82;5.22;;;;;;;21.35;60.77;94793.34;4172732;28;20052;-69
2022/08/11 00:37:02;;;;;;;5.53;4.47;;;;;;;21.36;60.85;94790.47;4161131;28;20062;-69
2022/08/11 00:39:06;;;;;;;5.20;4.47;;;;;;;21.37;60.65;94793.94;4158347;28;20104;-69
2022/08/11 00:41:10;;;;;;;5.93;4.82;;;;;;;21.35;60.85;94791.47;4159059;28;20056;-68
2022/08/11 00:43:19;;;;;;;4.95;4.30;;;;;;;21.27;61.12;94789.94;4174451;28;20476;-70
2022/08/11 00:45:35;;;;;;;5.95;4.80;;;;;;;21.27;61.06;94789.94;4159730;28;20474;-69
2022/08/11 00:48:06;;;;;;;4.97;4.50;;;;;;;21.22;61.29;94786.31;4149287;28;20073;-69
2022/08/11 00:50:26;;;;;;;6.65;4.82;;;;;;;21.21;61.17;94784.69;4151156;28;20045;-68
2022/08/11 00:52:47;;;;;;;6.03;4.97;;;;;;;21.18;61.43;94775.28;4177133;28;20053;-69
2022/08/11 00:55:10;;;;;;;5.30;4.80;;;;;;;21.19;61.18;94781.44;4176601;28;20052;-69
2022/08/11 00:57:21;;;;;;;8.48;5.13;;;;;;;21.16;61.32;94781.88;4165372;28;20056;-68
2022/08/11 00:59:49;;;;;;;;;;;;;;;21.10;61.55;94786.25;4164155;28;20495;-69
2022/08/11 01:01:59;;;;;;;5.63;5.13;;;;;;;21.05;61.75;94783.44;4176994;28;19975;-69
2022/08/11 01:04:10;;;;;;;6.75;5.72;;;;;;;20.99;61.78;94786.97;4182406;28;20454;-69
2022/08/11 01:06:36;;;;;;;5.97;5.28;;;;;;;20.93;62.32;94790.53;4168535;28;20162;-69
2022/08/11 01:09:08;;;;;;;5.45;4.95;;;;;;;20.95;62.08;94786.63;4186360;28;20056;-70
2022/08/11 01:11:26;;;;;;;7.50;5.35;;;;;;;20.98;62.27;94783.50;4167739;28;20053;-68
2022/08/11 01:14:07;;;;;;;7.25;5.65;;;;;;;21.02;62.03;94778.56;4156791;28;20053;-68
2022/08/11 01:16:35;;;;;;;8.70;5.22;;;;;;;21.11;61.53;94777.22;4177441;28;20053;-68
2022/08/11 01:18:55;;;;;;;9.45;5.80;;;;;;;21.13;61.77;94775.16;4163397;28;20060;-68
2022/08/11 01:20:57;;;;;;;9.63;5.30;;;;;;;21.15;61.64;94781.06;4165494;28;20234;-69
2022/08/11 01:23:07;;;;;;;8.30;5.43;;;;;;;21.20;61.58;94783.06;4175843;28;20102;-69
2022/08/11 01:25:43;;;;;;;6.03;5.38;;;;;;;21.25;61.61;94772.53;4157704;28;20597;-68
2022/08/11 01:28:28;;;;;;;5.93;5.07;;;;;;;21.08;61.71;94777.69;4169583;28;20080;-69
2022/08/11 01:30:51;;;;;;;5.78;5.10;;;;;;;20.78;62.67;94775.75;4158986;28;20103;-68
2022/08/11 01:33:23;;;;;;;6.97;5.50;;;;;;;20.59;63.55;94776.75;4169824;28;20140;-68
2022/08/11 01:35:47;;;;;;;6.10;4.97;;;;;;;20.62;63.48;94766.47;4172700;28;20502;-69
2022/08/11 01:37:48;;;;;;;8.23;5.45;;;;;;;20.65;63.29;94766.03;4175908;28;20057;-68
2022/08/11 01:40:22;;;;;;;5.85;4.82;;;;;;;20.74;63.22;94771.06;4174926;28;20076;-70
2022/08/11 01:45:52;;;;;;;8.07;5.28;;;;;;;20.95;62.49;94764.47;4161549;28;20058;-69
2022/08/11 01:48:19;;;;;;;7.68;5.82;;;;;;;20.99;62.49;94761.19;4164263;28;20318;-70
2022/08/11 01:50:46;;;;;;;6.25;5.43;;;;;;;21.05;62.19;94765.59;4176482;28;20061;-68
2022/08/11 01:53:03;;;;;;;7.38;6.20;;;;;;;21.08;62.12;94764.34;4173102;28;20465;-69
2022/08/11 01:55:22;;;;;;;6.97;5.82;;;;;;;21.05;62.25;94768.25;4141971;28;20492;-67
2022/08/11 01:57:35;;;;;;;8.20;5.90;;;;;;;21.05;62.30;94767.44;4156039;28;20049;-72
2022/08/11 01:59:47;;;;;;;7.10;4.75;;;;;;;21.05;62.17;94765.59;4149095;28;20072;-69
2022/08/11 02:02:14;;;;;;;8.75;5.75;;;;;;;21.00;62.49;94762.00;4162808;28;20135;-68
2022/08/11 02:04:33;;;;;;;9.38;6.15;;;;;;;20.97;62.42;94765.06;4164834;28;20168;-68
2022/08/11 02:06:53;;;;;;;6.10;5.22;;;;;;;20.95;62.32;94762.66;4158213;28;20137;-69
2022/08/11 02:09:23;;;;;;;6.65;5.50;;;;;;;20.98;62.35;94764.06;4183512;28;20132;-68
2022/08/11 02:11:33;;;;;;;6.65;5.85;;;;;;;20.99;62.30;94763.84;4159532;28;20092;-69
2022/08/11 02:14:15;;;;;;;9.05;6.38;;;;;;;20.98;62.34;94766.72;4159142;28;20709;-69
2022/08/11 02:16:35;;;;;;;5.95;4.95;;;;;;;20.97;62.22;94765.91;4163758;28;20088;-69
2022/08/11 02:23:38;;;;;;;5.60;5.00;;;;;;;20.93;62.29;94766.56;4144173;28;20050;-71
2022/08/11 02:26:18;;;;;;;6.55;5.72;;;;;;;20.94;62.23;94765.53;4148382;28;20057;-70
2022/08/11 02:28:28;;;;;;;6.72;5.45;;;;;;;20.94;62.31;94765.53;4165991;28;20056;-68
2022/08/11 02:30:36;;;;;;;6.22;5.28;;;;;;;20.89;62.34;94760.88;4148513;28;20054;-69
2022/08/11 02:35:35;;;;;;;6.95;5.03;;;;;;;20.80;62.51;94768.34;4176268;28;20122;-69
2022/08/11 02:37:59;;;;;;;6.80;5.72;;;;;;;20.79;62.51;94761.38;4145010;28;20061;-69
2022/08/11 02:40:41;;;;;;;6.75;5.55;;;;;;;20.72;62.83;94762.50;4175390;28;20128;-69
2022/08/11 02:42:43;;;;;;;8.10;5.32;;;;;;;20.65;62.98;94765.22;4159657;28;20095;-69
2022/08/11 02:45:01;;;;;;;8.77;5.22;;;;;;;20.58;63.28;94759.13;4168169;28;20444;-68
2022/08/11 02:47:21;;;;;;;9.38;5.82;;;;;;;20.60;63.31;94757.88;4162723;28;20327;-68
2022/08/11 02:49:55;;;;;;;5.85;5.15;;;;;;;20.68;63.06;94759.44;4169466;28;20068;-72
2022/08/11 02:52:30;;;;;;;7.88;6.07;;;;;;;20.65;63.04;94765.22;4156493;28;20053;-69
2022/08/11 02:54:45;;;;;;;7.63;6.35;;;;;;;20.68;63.06;94767.44;4159951;28;20056;-69
2022/08/11 02:56:56;;;;;;;10.25;7.05;;;;;;;20.70;62.95;94768.03;4156425;28;20071;-70
2022/08/11 03:01:31;;;;;;;8.13;6.53;;;;;;;20.71;62.79;94758.19;4160712;28;20065;-69
2022/08/11 03:04:10;;;;;;;8.63;6.53;;;;;;;20.66;62.98;94761.50;4173984;28;20110;-71
2022/08/11 03:06:25;;;;;;;8.82;6.82;;;;;;;20.61;63.01;94762.19;4146383;28;20144;-71
2022/08/11 03:08:50;;;;;;;8.18;6.15;;;;;;;20.61;62.99;94769.34;4184008;28;20487;-68
2022/08/11 03:19:11;;;;;;;8.68;6.22;;;;;;;20.68;62.62;94764.78;4169477;28;20065;-68
2022/08/11 03:21:31;;;;;;;8.15;6.38;;;;;;;20.66;62.78;94770.31;4141427;28;20054;-67
2022/08/11 03:24:11;;;;;;;7.47;5.53;;;;;;;20.70;62.55;94768.03;4152829;28;20048;-68
2022/08/11 03:26:25;;;;;;;10.35;6.55;;;;;;;20.73;62.41;94767.59;4155157;28;20501;-68
2022/08/11 03:28:34;;;;;;;8.23;6.65;;;;;;;20.76;62.28;94772.47;4161642;28;20057;-68
2022/08/11 03:30:45;;;;;;;8.45;6.10;;;;;;;20.71;62.54;94769.66;4158060;28;20065;-69
2022/08/11 03:34:00;;;;;;;8.73;5.95;;;;;;;20.71;62.25;94764.31;4164922;28;20496;-70
2022/08/11 03:35:10;;;;;;;7.53;5.85;;;;;;;20.66;62.53;94761.50;4164616;28;20148;-68
2022/08/11 03:37:49;;;;;;;9.07;6.15;;;;;;;20.66;62.47;94761.50;4148528;28;20058;-69
2022/08/11 03:40:10;;;;;;;11.40;5.55;;;;;;;20.71;62.44;94764.31;4164300;28;20132;-69
2022/08/11 03:42:31;;;;;;;7.25;6.15;;;;;;;20.79;62.12;94771.22;4162659;28;20067;-68
2022/08/11 03:44:52;;;;;;;7.28;5.80;;;;;;;20.79;62.02;94768.56;4163004;28;20544;-67
2022/08/11 03:47:32;;;;;;;6.78;5.95;;;;;;;20.81;61.94;94772.63;4164067;28;20053;-68
2022/08/11 03:49:40;;;;;;;6.93;5.80;;;;;;;20.83;61.89;94772.41;4167310;28;20096;-68
2022/08/11 03:52:05;;;;;;;8.10;5.57;;;;;;;20.82;61.91;94770.75;4168339;28;20093;-68
2022/08/11 03:54:19;;;;;;;6.63;6.00;;;;;;;20.85;62.04;94768.47;4170656;28;20507;-69
2022/08/11 03:56:51;;;;;;;6.53;5.90;;;;;;;20.88;61.71;94769.06;4179669;28;20488;-68
2022/08/11 03:59:25;;;;;;;8.23;5.35;;;;;;;20.88;61.85;94772.53;4169553;28;20487;-68
2022/08/11 04:02:08;;;;;;;7.18;6.22;;;;;;;20.91;61.69;94771.28;4177831;28;20376;-68
2022/08/11 04:04:21;;;;;;;12.80;5.55;;;;;;;20.95;61.52;94770.66;4165447;28;20045;-69
2022/08/11 04:06:29;;;;;;;7.65;5.85;;;;;;;20.97;61.30;94771.25;4167005;28;20053;-69
2022/08/11 04:08:37;;;;;;;8.45;5.68;;;;;;;20.98;61.46;94772.03;4188824;28;20059;-68
2022/08/11 04:11:03;;;;;;;7.95;5.47;;;;;;;20.99;61.14;94776.31;4169614;28;20045;-68
2022/08/11 04:13:46;;;;;;;8.27;6.00;;;;;;;21.15;60.92;94774.94;4168136;28;20071;-68
2022/08/11 04:16:27;;;;;;;6.88;5.72;;;;;;;21.23;60.70;94769.28;4105744;28;20094;-69
2022/08/11 04:19:03;;;;;;;8.38;5.70;;;;;;;21.33;60.45;94782.09;4171797;28;20056;-69
2022/08/11 04:21:27;;;;;;;5.82;5.18;;;;;;;21.38;60.05;94776.88;4178147;28;20132;-69
2022/08/11 04:23:43;;;;;;;7.35;5.45;;;;;;;21.37;60.11;94778.75;4179748;28;20045;-68
2022/08/11 04:26:34;;;;;;;9.15;5.93;;;;;;;21.38;60.18;94774.22;4179922;28;20503;-68
2022/08/11 04:29:03;;;;;;;7.80;5.97;;;;;;;21.30;60.12;94774.56;4138220;28;20057;-68
2022/08/11 04:31:29;;;;;;;6.68;5.85;;;;;;;21.30;60.19;94780.69;4179288;28;20053;-67
2022/08/11 04:34:05;;;;;;;9.82;5.93;;;;;;;21.38;59.91;94775.06;4165670;28;20049;-67
2022/08/11 04:37:31;;;;;;;6.95;5.95;;;;;;;21.43;60.17;94783.22;4180022;28;20065;-68
2022/08/11 04:38:57;;;;;;;7.53;6.22;;;;;;;21.43;60.03;94787.75;4180207;28;20061;-68
2022/08/11 04:41:21;;;;;;;6.65;5.95;;;;;;;21.34;60.00;94783.69;4176021;28;20056;-70
2022/08/11 04:43:38;;;;;;;10.97;6.33;;;;;;;21.16;60.64;94782.69;4178011;28;20055;-70
2022/08/11 04:46:26;;;;;;;8.65;5.97;;;;;;;20.83;61.68;94780.41;4166677;28;20278;-69
2022/08/11 05:01:40;;;;;;;11.38;7.22;;;;;;;20.51;62.95;94798.28;4149600;28;20185;-69
2022/08/11 05:05:29;;;;;;;9.55;7.07;;;;;;;20.41;63.16;94801.41;4171765;28;20053;-69
2022/08/11 05:07:15;;;;;;;8.55;6.90;;;;;;;20.33;63.76;94797.19;4159343;28;20057;-69
2022/08/11 05:10:04;;;;;;;11.68;7.50;;;;;;;20.30;63.78;94794.16;4115049;28;20491;-68
2022/08/11 05:12:20;;;;;;;10.43;7.30;;;;;;;20.21;64.04;94794.41;4153393;28;20280;-67
2022/08/11 05:34:53;;;;;;;9.88;7.47;;;;;;;20.42;63.43;94798.53;4146273;28;20115;-67
2022/08/11 05:37:05;;;;;;;12.70;7.60;;;;;;;20.27;64.33;94792.75;4143818;28;20572;-69
2022/08/11 05:56:32;;;;;;;18.00;9.02;;;;;;;20.66;64.07;94788.94;4175932;28;20063;-68
2022/08/11 05:58:34;;;;;;;;;;;;;;;20.64;63.82;94784.88;4159202;28;20107;-69
2022/08/11 06:00:45;;;;;;;16.83;7.05;;;;;;;20.67;63.94;94784.44;4176515;28;19950;-69
2022/08/11 06:02:56;;;;;;;15.13;7.97;;;;;;;20.79;63.54;94782.69;4175346;28;20501;-69
2022/08/11 06:04:59;;;;;;;12.02;6.72;;;;;;;21.08;62.96;94791.00;4160107;28;20081;-70
2022/08/11 06:07:05;;;;;;;9.82;7.00;;;;;;;21.32;62.07;94785.81;4169391;28;20708;-69
2022/08/11 06:09:07;;;;;;;6.82;6.00;;;;;;;21.53;61.36;94789.84;4169692;28;20108;-67
2022/08/11 06:11:09;;;;;;;7.32;6.07;;;;;;;21.74;60.61;94785.91;4149384;28;20161;-68
2022/08/11 06:13:22;;;;;;;7.75;5.30;;;;;;;21.89;60.00;94787.09;4160627;28;20045;-68
2022/08/11 06:15:24;;;;;;;7.05;5.82;;;;;;;22.00;59.09;94788.16;4148183;28;20076;-68
2022/08/11 06:17:32;;;;;;;10.13;6.13;;;;;;;22.05;58.94;94784.84;4150042;28;20061;-68
2022/08/11 06:19:41;;;;;;;8.18;6.50;;;;;;;22.14;59.06;94780.78;4156785;28;20129;-68
2022/08/11 06:21:45;;;;;;;9.90;6.45;;;;;;;21.87;60.08;94781.19;4171885;28;20056;-69
2022/08/11 06:23:47;;;;;;;12.35;6.30;;;;;;;21.78;60.34;94781.75;4150205;28;20124;-67
2022/08/11 06:25:50;;;;;;;9.73;6.25;;;;;;;21.29;61.69;94779.03;4157840;28;20184;-70
2022/08/11 06:27:55;;;;;;;8.90;6.35;;;;;;;21.17;62.53;94775.53;4158371;28;20144;-69
2022/08/11 06:29:57;;;;;;;7.22;5.43;;;;;;;21.46;61.04;94771.28;4176345;28;20049;-70
2022/08/11 06:32:00;;;;;;;8.77;6.70;;;;;;;21.36;61.65;94777.13;4158661;28;20252;-69
2022/08/11 06:34:12;;;;;;;8.75;6.15;;;;;;;21.55;61.27;94772.59;4176275;28;20040;-70
2022/08/11 06:36:33;;;;;;;8.30;5.55;;;;;;;21.83;59.73;94780.03;4160283;28;20049;-68
2022/08/11 06:38:56;;;;;;;8.63;5.95;;;;;;;22.08;59.03;94773.69;4175003;28;20484;-69
2022/08/11 06:43:25;;;;;;;7.63;5.50;;;;;;;21.72;58.87;94771.97;4160844;28;20528;-67
2022/08/11 06:45:46;;;;;;;8.68;4.60;;;;;;;21.74;58.91;94775.22;4158083;28;20045;-69
2022/08/11 06:47:48;;;;;;;4.97;4.47;;;;;;;21.64;58.22;94765.13;4158163;28;20050;-68
2022/08/11 06:52:16;;;;;;;5.88;4.75;;;;;;;22.23;56.96;94773.31;4159955;28;20079;-66
2022/08/11 06:54:40;;;;;;;8.07;5.72;;;;;;;22.38;57.22;94770.19;4175881;28;20076;-69
2022/08/11 07:02:02;;;;;;;10.05;5.72;;;;;;;22.58;56.62;94775.19;4174985;28;20072;-71
2022/08/11 07:04:07;;;;;;;7.38;5.13;;;;;;;22.16;57.54;94775.25;4167782;28;20052;-68
2022/08/11 07:06:27;;;;;;;6.97;5.43;;;;;;;22.23;57.30;94775.97;4166080;28;20434;-70
2022/08/11 07:16:27;;;;;;;8.65;5.60;;;;;;;22.95;55.48;94785.63;4160393;28;20558;-72
2022/08/11 07:30:57;;;;;;;6.32;4.32;;;;;;;23.35;52.59;94782.22;4156899;28;20084;-70
2022/08/11 07:33:01;;;;;;;7.07;4.82;;;;;;;23.49;52.31;94781.72;4145389;28;20045;-69
2022/08/11 07:35:14;;;;;;;6.20;4.60;;;;;;;23.29;52.54;94776.75;4168590;28;20153;-71
2022/08/11 07:37:19;;;;;;;7.68;4.90;;;;;;;23.34;52.53;94775.22;4158669;28;20101;-69
2022/08/11 07:39:23;;;;;;;6.22;4.72;;;;;;;23.16;53.04;94782.38;4157249;28;20061;-69
2022/08/11 07:41:29;;;;;;;9.40;4.80;;;;;;;23.35;52.41;94776.88;4174559;28;20049;-69
2022/08/11 07:43:34;;;;;;;7.15;4.40;;;;;;;23.64;51.33;94783.03;4158293;28;20505;-70
2022/08/11 07:52:45;;;;;;;5.65;4.05;;;;;;;24.00;50.87;94775.72;4159312;28;20085;-70
2022/08/11 07:54:55;;;;;;;4.88;4.28;;;;;;;24.25;50.23;94770.78;4174304;28;20544;-71
2022/08/11 07:56:58;;;;;;;5.90;4.15;;;;;;;24.58;49.37;94769.19;4173773;28;20059;-72
2022/08/11 08:18:35;;;;;;;6.25;3.90;;;;;;;25.18;47.15;94762.25;4150970;28;20385;-68
2022/08/11 08:20:50;;;;;;;6.97;4.57;;;;;;;25.11;46.58;94767.78;4172767;28;20123;-69
2022/08/11 08:22:55;;;;;;;6.57;3.85;;;;;;;25.12;46.32;94765.91;4166435;28;20128;-69
2022/08/11 08:24:58;;;;;;;4.40;3.63;;;;;;;25.34;45.95;94758.75;4167284;28;20110;-68
2022/08/11 08:27:01;;;;;;;3.88;3.47;;;;;;;25.46;45.70;94753.22;4170529;28;20092;-67
2022/08/11 08:31:25;;;;;;;5.18;3.97;;;;;;;25.73;45.81;94753.28;4151738;28;20132;-70
2022/08/11 08:33:29;;;;;;;5.13;4.30;;;;;;;25.80;45.43;94754.94;4154589;28;20057;-68
2022/08/11 08:35:31;;;;;;;7.30;4.82;;;;;;;25.91;45.33;94752.13;4143613;28;20086;-68
2022/08/11 08:37:33;;;;;;;4.53;3.90;;;;;;;26.00;45.06;94743.63;4163254;28;20045;-68
2022/08/11 08:39:48;;;;;;;5.05;3.63;;;;;;;26.17;44.92;94748.88;4139694;28;20703;-68
2022/08/11 08:41:56;;;;;;;4.80;4.22;;;;;;;25.20;46.12;94751.31;4178018;28;20064;-68
2022/08/11 08:44:02;;;;;;;5.82;3.92;;;;;;;25.01;46.67;94745.41;4160013;28;20148;-71
2022/08/11 08:46:34;;;;;;;7.45;3.97;;;;;;;24.84;47.45;94746.25;4178024;28;20055;-69
2022/08/11 08:48:36;;;;;;;4.63;3.95;;;;;;;25.12;47.06;94745.31;4159919;28;20111;-70
2022/08/11 08:53:05;;;;;;;4.53;4.10;;;;;;;25.28;45.11;94748.22;4161482;28;20050;-69
2022/08/11 08:55:09;;;;;;;4.63;3.90;;;;;;;25.16;45.33;94748.28;4164104;28;20077;-69
2022/08/11 08:57:12;;;;;;;5.22;4.07;;;;;;;24.88;46.12;94751.94;4144295;28;20054;-67
2022/08/11 08:59:14;;;;;;;;;;;;;;;24.79;46.22;94740.84;4144801;28;20129;-68
2022/08/11 09:01:20;;;;;;;5.65;4.00;;;;;;;24.78;45.81;94743.75;4154952;28;19976;-66
2022/08/11 09:03:22;;;;;;;4.45;3.85;;;;;;;24.93;45.90;94744.00;4161860;28;20666;-68
2022/08/11 09:05:44;;;;;;;5.07;3.55;;;;;;;24.96;44.75;94737.31;4169675;28;20566;-69
2022/08/11 09:07:49;;;;;;;6.05;4.07;;;;;;;24.96;45.50;94737.31;4151943;28;20057;-69
2022/08/11 09:09:53;;;;;;;8.13;4.90;;;;;;;24.98;46.42;94751.28;4157166;28;20057;-68
2022/08/11 09:11:55;;;;;;;8.32;4.30;;;;;;;25.06;46.16;94740.94;4176148;28;20475;-69
2022/08/11 09:13:58;;;;;;;4.32;3.88;;;;;;;25.20;45.48;94736.03;4159738;28;20073;-69
2022/08/11 09:16:08;;;;;;;6.13;3.70;;;;;;;25.33;45.32;94732.97;4177534;28;20428;-69
2022/08/11 09:18:11;;;;;;;3.42;2.88;;;;;;;25.61;44.62;94727.66;4176751;28;20049;-69
2022/08/11 09:20:18;;;;;;;3.90;3.50;;;;;;;26.04;44.16;94723.25;4159262;28;20180;-70
2022/08/11 09:27:05;;;;;;;4.68;3.83;;;;;;;25.27;44.40;94723.25;4161629;28;20045;-69
2022/08/11 09:29:09;;;;;;;9.77;3.95;;;;;;;25.67;44.36;94730.13;4177129;28;20350;-68
2022/08/11 09:31:11;;;;;;;;;;;;;;;25.90;44.08;94721.00;4164084;28;20117;-69
2022/08/11 09:33:15;;;;;;;4.15;3.70;;;;;;;25.74;43.63;94727.25;4177047;28;19948;-69
2022/08/11 09:35:18;;;;;;;4.53;3.60;;;;;;;25.53;43.03;94732.41;4166692;28;20415;-69
2022/08/11 09:42:19;;;;;;;5.30;3.65;;;;;;;25.48;41.99;94718.94;4173667;28;20408;-68
2022/08/11 09:46:51;;;;;;;5.40;3.33;;;;;;;25.96;41.96;94713.78;4171715;28;20061;-69
2022/08/11 09:48:58;;;;;;;5.30;3.08;;;;;;;26.32;40.94;94708.72;4156150;28;20057;-68
2022/08/11 09:51:01;;;;;;;4.07;3.60;;;;;;;26.64;40.82;94703.31;4149208;28;20432;-68
2022/08/11 09:53:04;;;;;;;;;;;;;;;26.51;41.39;94712.63;4158013;28;20057;-68
2022/08/11 09:55:27;;;;;;;4.60;3.88;;;;;;;26.51;42.00;94695.69;4148692;28;20283;-70
2022/08/11 09:59:51;;;;;;;6.35;4.25;;;;;;;25.57;43.96;94708.56;4176098;28;20103;-68
2022/08/11 10:02:14;;;;;;;5.72;4.18;;;;;;;25.59;43.54;94705.63;4151546;28;20075;-68
2022/08/11 10:04:19;;;;;;;5.95;4.35;;;;;;;25.57;43.81;94700.50;4176807;28;20468;-70
2022/08/11 10:08:45;;;;;;;5.03;4.18;;;;;;;25.84;42.41;94692.47;4111571;28;20110;-69
2022/08/11 10:10:47;;;;;;;;;;;;;;;25.75;41.89;94699.38;4157849;28;20590;-69
2022/08/11 10:12:55;;;;;;;4.75;4.00;;;;;;;25.21;43.87;94697.47;4155066;28;20011;-66
2022/08/11 10:17:24;;;;;;;6.72;4.07;;;;;;;25.90;42.79;94693.34;4171936;28;20214;-69
2022/08/11 10:19:25;;;;;;;4.60;4.10;;;;;;;26.33;42.60;94683.50;4174457;28;20131;-69
2022/08/11 10:21:43;;;;;;;5.43;4.15;;;;;;;26.73;40.76;94687.53;4152047;28;20132;-68
2022/08/11 10:28:34;;;;;;;8.93;4.68;;;;;;;26.44;42.45;94690.56;4160643;28;20066;-69
2022/08/11 10:36:00;;;;;;;5.47;4.03;;;;;;;26.47;42.27;94694.59;4175228;28;20055;-68
2022/08/11 10:38:18;;;;;;;4.57;3.87;;;;;;;26.76;41.47;94693.19;4173877;28;20089;-68
2022/08/11 10:40:22;;;;;;;5.65;3.80;;;;;;;27.04;41.02;94695.72;4152753;28;20568;-69
2022/08/11 10:45:00;;;;;;;4.90;4.00;;;;;;;26.10;41.76;94682.78;4173530;28;19920;-69
2022/08/11 10:49:25;;;;;;;5.53;4.18;;;;;;;26.51;40.98;94680.38;4158484;28;20828;-70
2022/08/11 10:58:48;;;;;;;4.97;4.13;;;;;;;26.75;39.36;94663.88;4168172;28;20049;-69
2022/08/11 11:00:55;;;;;;;5.75;3.63;;;;;;;26.35;39.51;94667.94;4175509;28;20131;-69
2022/08/11 11:02:59;;;;;;;4.43;3.53;;;;;;;26.64;39.71;94670.28;4155659;28;20478;-68
2022/08/11 11:05:28;;;;;;;5.55;3.60;;;;;;;26.06;40.64;94654.03;4142365;28;20060;-72
2022/08/11 11:07:39;;;;;;;4.43;3.50;;;;;;;25.92;41.13;94664.38;4160278;28;20451;-68
2022/08/11 11:09:50;;;;;;;4.32;3.53;;;;;;;26.01;41.32;94662.06;4166328;28;20201;-68
2022/08/11 11:19:17;;;;;;;6.53;5.05;;;;;;;25.73;41.88;94663.94;4164427;28;20096;-68
2022/08/11 11:21:20;;;;;;;8.52;5.20;;;;;;;25.60;42.42;94662.47;4152910;28;20442;-68
2022/08/11 11:23:40;;;;;;;5.03;4.47;;;;;;;25.64;42.49;94668.13;4140508;28;20133;-68
2022/08/11 11:25:42;;;;;;;5.20;4.07;;;;;;;25.61;42.27;94664.06;4155180;28;20132;-69
2022/08/11 11:27:56;;;;;;;4.40;3.70;;;;;;;25.68;41.22;94659.34;4169851;28;20049;-67
2022/08/11 11:30:07;;;;;;;6.97;3.50;;;;;;;25.91;40.65;94660.88;4151574;28;20580;-70
2022/08/11 11:32:37;;;;;;;5.10;3.60;;;;;;;26.12;39.45;94655.69;4174905;28;20627;-69
2022/08/11 11:35:16;;;;;;;6.15;3.25;;;;;;;26.23;38.98;94653.88;4175089;28;20381;-68
2022/08/11 11:37:18;;;;;;;3.55;3.25;;;;;;;26.39;39.51;94663.63;4168067;28;20197;-68
2022/08/11 11:39:22;;;;;;;6.25;3.83;;;;;;;26.58;39.50;94655.19;4174539;28;20072;-68
2022/08/11 11:41:25;;;;;;;7.05;4.15;;;;;;;26.76;39.26;94654.78;4174757;28;20088;-68
2022/08/11 11:43:30;;;;;;;5.32;3.50;;;;;;;27.03;39.02;94649.22;4157596;28;20467;-67
2022/08/11 11:45:32;;;;;;;4.97;3.78;;;;;;;27.03;38.94;94651.09;4160528;28;20135;-69
2022/08/11 11:47:35;;;;;;;6.72;3.75;;;;;;;26.64;39.95;94654.97;4158778;28;20347;-69
2022/08/11 11:49:42;;;;;;;5.57;3.72;;;;;;;26.76;39.93;94652.88;4151071;28;20627;-69
2022/08/11 11:51:51;;;;;;;4.22;3.72;;;;;;;26.94;40.11;94646.22;4178582;28;20140;-68
2022/08/11 11:53:53;;;;;;;6.63;4.18;;;;;;;27.11;40.33;94647.91;4145100;28;20157;-70
2022/08/11 11:55:56;;;;;;;9.95;4.65;;;;;;;26.72;40.89;94653.66;4173595;28;20056;-71
2022/08/11 12:02:44;;;;;;;4.43;3.88;;;;;;;27.27;39.42;94644.22;4154525;28;20184;-69
2022/08/11 12:04:47;;;;;;;8.23;3.88;;;;;;;27.60;39.27;94633.25;4175698;28;20064;-70
2022/08/11 12:06:51;;;;;;;;;;;;;;;27.37;38.72;94646.94;4147337;28;20085;-68
2022/08/11 12:08:55;;;;;;;6.75;4.03;;;;;;;27.05;39.77;94636.31;4166549;28;19925;-67
2022/08/11 12:13:41;;;;;;;5.18;4.22;;;;;;;26.55;40.74;94632.31;4160812;28;20865;-68
2022/08/11 12:15:43;;;;;;;8.65;4.60;;;;;;;26.13;41.53;94625.06;4176583;28;20519;-69
2022/08/11 12:18:05;;;;;;;7.38;4.32;;;;;;;26.02;41.43;94624.19;4176596;28;20492;-69
2022/08/11 12:20:07;;;;;;;14.40;4.72;;;;;;;26.39;40.93;94627.91;4158261;28;20481;-68
2022/08/11 12:27:42;;;;;;;5.38;3.83;;;;;;;26.10;43.59;94622.91;4178752;28;20047;-67
2022/08/11 12:29:54;;;;;;;4.80;3.67;;;;;;;26.14;44.03;94621.34;4160013;28;20454;-69
2022/08/11 12:31:59;;;;;;;7.13;4.18;;;;;;;25.85;44.33;94628.88;4159882;28;20072;-69
2022/08/11 12:34:04;;;;;;;5.25;3.70;;;;;;;26.11;43.59;94619.97;4175150;28;20197;-68
2022/08/11 12:36:08;;;;;;;5.25;4.05;;;;;;;26.35;43.62;94623.09;4160046;28;20049;-69
2022/08/11 12:38:10;;;;;;;5.55;3.78;;;;;;;26.42;43.00;94624.72;4164169;28;20140;-68
2022/08/11 12:45:40;;;;;;;4.15;3.22;;;;;;;25.42;44.28;94644.03;4150640;28;20718;-69
2022/08/11 12:52:55;;;;;;;3.65;3.13;;;;;;;24.90;44.88;94640.75;4161581;28;20049;-69
2022/08/11 12:55:11;;;;;;;6.32;3.17;;;;;;;24.68;46.43;94640.78;4161484;28;20152;-68
2022/08/11 13:04:57;;;;;;;4.03;3.00;;;;;;;25.05;46.45;94640.13;4147927;28;21022;-68
2022/08/11 13:07:02;;;;;;;6.10;2.90;;;;;;;25.16;46.23;94640.25;4158360;28;20694;-69
2022/08/11 13:09:05;;;;;;;4.53;3.30;;;;;;;25.31;45.94;94641.25;4182100;28;20129;-68
2022/08/11 13:13:48;;;;;;;5.90;3.17;;;;;;;25.16;46.25;94640.25;4166617;28;19943;-67
2022/08/11 13:15:57;;;;;;;4.03;3.17;;;;;;;25.41;45.78;94635.19;4161323;28;20045;-69
2022/08/11 13:18:00;;;;;;;3.38;3.08;;;;;;;25.81;44.90;94639.28;4143501;28;20465;-70
2022/08/11 13:20:02;;;;;;;5.88;3.17;;;;;;;26.02;44.24;94644.88;4146707;28;20507;-70
2022/08/11 13:22:06;;;;;;;7.75;3.50;;;;;;;26.30;44.30;94641.03;4142607;28;20141;-69
2022/08/11 13:24:08;;;;;;;;;;;;;;;26.48;43.67;94635.25;4143709;28;20100;-68
2022/08/11 13:26:10;;;;;;;4.00;3.05;;;;;;;26.13;43.38;94633.94;4156204;28;19929;-70
2022/08/11 13:28:12;;;;;;;3.50;3.00;;;;;;;26.03;43.38;94631.19;4177308;28;20589;-69
2022/08/11 13:32:44;;;;;;;5.60;2.97;;;;;;;26.30;42.77;94630.28;4152681;28;20080;-69
2022/08/11 13:34:46;;;;;;;3.28;2.60;;;;;;;26.48;42.08;94629.88;4177163;28;20048;-69
2022/08/11 13:36:52;;;;;;;4.90;3.03;;;;;;;26.57;41.84;94621.34;4176178;28;20045;-70
2022/08/11 13:38:57;;;;;;;3.42;2.80;;;;;;;26.70;42.01;94627.06;4177101;28;20125;-69
2022/08/11 13:40:59;;;;;;;6.55;3.65;;;;;;;26.70;41.29;94621.69;4163500;28;20045;-70
2022/08/11 13:43:01;;;;;;;3.92;3.10;;;;;;;26.67;40.26;94630.28;4159556;28;20091;-69
2022/08/11 13:45:06;;;;;;;7.00;2.72;;;;;;;26.43;40.94;94624.44;4169956;28;20412;-69
2022/08/11 13:47:11;;;;;;;4.28;2.72;;;;;;;26.44;40.95;94614.53;4174889;28;20080;-69
2022/08/11 13:49:17;;;;;;;4.15;3.05;;;;;;;26.65;40.96;94618.16;4159263;28;20423;-69
2022/08/11 13:51:34;;;;;;;4.30;2.95;;;;;;;26.86;41.06;94619.84;4176770;28;20063;-69
2022/08/11 13:53:36;;;;;;;4.28;2.95;;;;;;;26.99;40.40;94623.13;4158455;28;20140;-69
2022/08/11 13:55:39;;;;;;;3.88;3.00;;;;;;;27.13;40.40;94617.00;4141631;28;20046;-69
2022/08/11 13:57:53;;;;;;;4.47;2.72;;;;;;;27.43;39.77;94609.31;4176790;28;20114;-68
2022/08/11 14:00:15;;;;;;;5.70;3.10;;;;;;;27.76;39.45;94608.75;4162076;28;20052;-69
2022/08/11 14:02:30;;;;;;;4.80;2.95;;;;;;;27.83;38.93;94610.38;4160446;28;20179;-67
2022/08/11 14:04:49;;;;;;;3.47;2.70;;;;;;;27.93;37.78;94603.16;4175972;28;20060;-70